createdAt,value
2024-02-29T00:00:26.061Z,1012.27
2024-02-29T00:01:26.133Z,1012.24
2024-02-29T00:02:26.080Z,1012.21
2024-02-29T00:03:26.047Z,1012.24
2024-02-29T00:04:26.039Z,1012.25
2024-02-29T00:05:26.047Z,1012.28
2024-02-29T00:06:26.000Z,1012.27
2024-02-29T00:07:25.988Z,1012.29
2024-02-29T00:08:26.018Z,1012.24
2024-02-29T00:09:25.960Z,1012.21
2024-02-29T00:10:25.956Z,1012.23
2024-02-29T00:11:25.984Z,1012.21
2024-02-29T00:12:25.935Z,1012.19
2024-02-29T00:13:25.934Z,1012.15
2024-02-29T00:14:25.948Z,1012.18
2024-02-29T00:15:25.925Z,1012.20
2024-02-29T00:16:25.904Z,1012.23
2024-02-29T00:17:25.885Z,1012.20
2024-02-29T00:18:25.883Z,1012.16
2024-02-29T00:19:25.858Z,1012.13
2024-02-29T00:20:25.896Z,1012.13
2024-02-29T00:21:25.837Z,1012.16
2024-02-29T00:22:25.831Z,1012.17
2024-02-29T00:23:25.827Z,1012.14
2024-02-29T00:24:25.813Z,1012.08
2024-02-29T00:25:25.804Z,1012.12
2024-02-29T00:26:25.830Z,1012.11
2024-02-29T00:27:25.790Z,1012.09
2024-02-29T00:28:25.771Z,1012.06
2024-02-29T00:29:25.761Z,1012.09
2024-02-29T00:30:25.742Z,1012.07
2024-02-29T00:31:25.735Z,1012.03
2024-02-29T00:32:25.770Z,1012.04
2024-02-29T00:33:25.761Z,1012.03
2024-02-29T00:34:25.730Z,1012.02
2024-02-29T00:35:25.712Z,1012.04
2024-02-29T00:36:25.681Z,1012.03
2024-02-29T00:37:25.719Z,1012.06
2024-02-29T00:38:25.683Z,1012.00
2024-02-29T00:39:25.644Z,1012.03
2024-02-29T00:40:25.637Z,1012.00
2024-02-29T00:41:25.624Z,1012.00
2024-02-29T00:42:25.608Z,1012.00
2024-02-29T00:43:25.617Z,1011.94
2024-02-29T00:44:25.665Z,1012.01
2024-02-29T00:45:25.595Z,1011.98
2024-02-29T00:46:25.575Z,1011.93
2024-02-29T00:47:25.611Z,1011.96
2024-02-29T00:48:25.557Z,1011.95
2024-02-29T00:49:25.562Z,1011.91
2024-02-29T00:50:25.578Z,1011.90
2024-02-29T00:51:25.512Z,1011.90
2024-02-29T00:52:25.510Z,1011.85
2024-02-29T00:53:25.497Z,1011.81
2024-02-29T00:54:25.481Z,1011.82
2024-02-29T00:55:25.486Z,1011.84
2024-02-29T00:56:25.506Z,1011.84
2024-02-29T00:57:25.457Z,1011.82
2024-02-29T00:58:25.442Z,1011.81
2024-02-29T00:59:25.440Z,1011.72
2024-02-29T01:00:25.427Z,1011.70
2024-02-29T01:01:25.454Z,1011.75
2024-02-29T01:02:25.453Z,1011.73
2024-02-29T01:03:25.388Z,1011.73
2024-02-29T01:04:25.415Z,1011.69
2024-02-29T01:05:25.369Z,1011.67
2024-02-29T01:06:25.364Z,1011.65
2024-02-29T01:07:25.353Z,1011.68
2024-02-29T01:08:25.382Z,1011.66
2024-02-29T01:09:25.335Z,1011.64
2024-02-29T01:10:25.308Z,1011.65
2024-02-29T01:11:25.345Z,1011.54
2024-02-29T01:12:25.293Z,1011.60
2024-02-29T01:13:25.290Z,1011.60
2024-02-29T01:14:25.306Z,1011.65
2024-02-29T01:15:25.272Z,1011.58
2024-02-29T01:16:25.254Z,1011.55
2024-02-29T01:17:25.246Z,1011.54
2024-02-29T01:18:25.234Z,1011.53
2024-02-29T01:19:25.212Z,1011.53
2024-02-29T01:20:25.234Z,1011.49
2024-02-29T01:21:25.196Z,1011.50
2024-02-29T01:22:25.230Z,1011.52
2024-02-29T01:23:25.185Z,1011.47
2024-02-29T01:24:25.162Z,1011.50
2024-02-29T01:25:25.154Z,1011.49
2024-02-29T01:26:25.181Z,1011.50
2024-02-29T01:27:25.145Z,1011.46
2024-02-29T01:28:25.118Z,1011.40
2024-02-29T01:29:25.119Z,1011.50
2024-02-29T01:30:25.102Z,1011.44
2024-02-29T01:31:25.107Z,1011.40
2024-02-29T01:32:27.965Z,1011.36
2024-02-29T01:33:25.145Z,1011.36
2024-02-29T01:34:25.102Z,1011.30
2024-02-29T01:35:25.059Z,1011.36
2024-02-29T01:36:25.036Z,1011.29
2024-02-29T01:37:25.042Z,1011.27
2024-02-29T01:38:25.065Z,1011.25
2024-02-29T01:39:25.015Z,1011.23
2024-02-29T01:40:24.993Z,1011.20
2024-02-29T01:41:24.996Z,1011.23
2024-02-29T01:42:24.988Z,1011.20
2024-02-29T01:43:24.967Z,1011.16
2024-02-29T01:44:24.990Z,1011.17
2024-02-29T01:45:24.945Z,1011.13
2024-02-29T01:46:24.939Z,1011.14
2024-02-29T01:47:24.970Z,1011.06
2024-02-29T01:48:24.904Z,1011.08
2024-02-29T01:49:24.904Z,1011.09
2024-02-29T01:50:24.914Z,1011.05
2024-02-29T01:51:24.898Z,1011.04
2024-02-29T01:52:24.869Z,1011.01
2024-02-29T01:53:24.864Z,1010.95
2024-02-29T01:54:24.839Z,1010.96
2024-02-29T01:55:24.833Z,1010.99
2024-02-29T01:56:24.877Z,1010.98
2024-02-29T01:57:24.804Z,1010.95
2024-02-29T01:58:24.845Z,1010.96
2024-02-29T01:59:24.789Z,1010.95
2024-02-29T02:00:24.780Z,1010.96
2024-02-29T02:01:24.849Z,1010.92
2024-02-29T02:02:24.787Z,1010.88
2024-02-29T02:03:24.751Z,1010.94
2024-02-29T02:04:24.734Z,1010.91
2024-02-29T02:05:24.725Z,1010.93
2024-02-29T02:06:24.720Z,1010.89
2024-02-29T02:07:24.697Z,1010.93
2024-02-29T02:08:24.737Z,1010.94
2024-02-29T02:09:24.691Z,1010.92
2024-02-29T02:10:24.768Z,1010.93
2024-02-29T02:11:24.678Z,1010.89
2024-02-29T02:12:24.648Z,1010.91
2024-02-29T02:13:24.632Z,1010.86
2024-02-29T02:14:24.671Z,1010.87
2024-02-29T02:15:24.626Z,1010.80
2024-02-29T02:16:24.604Z,1010.82
2024-02-29T02:17:24.620Z,1010.84
2024-02-29T02:18:24.584Z,1010.80
2024-02-29T02:19:24.583Z,1010.79
2024-02-29T02:20:24.583Z,1010.73
2024-02-29T02:21:24.559Z,1010.75
2024-02-29T02:22:24.535Z,1010.77
2024-02-29T02:23:24.531Z,1010.75
2024-02-29T02:24:24.529Z,1010.78
2024-02-29T02:25:24.514Z,1010.75
2024-02-29T02:26:24.532Z,1010.75
2024-02-29T02:27:24.516Z,1010.73
2024-02-29T02:28:24.469Z,1010.76
2024-02-29T02:29:24.481Z,1010.72
2024-02-29T02:30:24.476Z,1010.65
2024-02-29T02:31:24.447Z,1010.66
2024-02-29T02:32:24.475Z,1010.63
2024-02-29T02:33:24.454Z,1010.62
2024-02-29T02:34:24.419Z,1010.60
2024-02-29T02:35:24.406Z,1010.60
2024-02-29T02:36:24.397Z,1010.57
2024-02-29T02:37:24.380Z,1010.56
2024-02-29T02:38:24.410Z,1010.55
2024-02-29T02:39:24.368Z,1010.54
2024-02-29T02:40:24.353Z,1010.51
2024-02-29T02:41:24.338Z,1010.53
2024-02-29T02:42:24.338Z,1010.43
2024-02-29T02:43:24.314Z,1010.48
2024-02-29T02:44:24.351Z,1010.44
2024-02-29T02:45:24.298Z,1010.40
2024-02-29T02:46:24.289Z,1010.37
2024-02-29T02:47:24.274Z,1010.42
2024-02-29T02:48:24.260Z,1010.37
2024-02-29T02:49:24.260Z,1010.40
2024-02-29T02:50:24.310Z,1010.40
2024-02-29T02:51:24.230Z,1010.35
2024-02-29T02:52:24.231Z,1010.36
2024-02-29T02:53:24.236Z,1010.38
2024-02-29T02:54:24.210Z,1010.36
2024-02-29T02:55:24.186Z,1010.34
2024-02-29T02:56:24.218Z,1010.34
2024-02-29T02:57:24.174Z,1010.32
2024-02-29T02:58:24.169Z,1010.30
2024-02-29T02:59:24.147Z,1010.31
2024-02-29T03:00:24.154Z,1010.31
2024-02-29T03:01:24.130Z,1010.27
2024-02-29T03:02:24.179Z,1010.22
2024-02-29T03:03:24.110Z,1010.19
2024-02-29T03:04:24.118Z,1010.22
2024-02-29T03:05:24.080Z,1010.16
2024-02-29T03:06:24.076Z,1010.21
2024-02-29T03:07:24.082Z,1010.18
2024-02-29T03:08:24.098Z,1010.14
2024-02-29T03:09:24.047Z,1010.12
2024-02-29T03:10:24.025Z,1010.14
2024-02-29T03:11:24.059Z,1010.12
2024-02-29T03:12:24.001Z,1010.08
2024-02-29T03:13:24.003Z,1010.11
2024-02-29T03:14:24.025Z,1010.10
2024-02-29T03:15:23.980Z,1010.05
2024-02-29T03:16:23.969Z,1010.06
2024-02-29T03:17:23.962Z,1010.05
2024-02-29T03:18:23.949Z,1010.02
2024-02-29T03:19:23.937Z,1010.01
2024-02-29T03:20:23.961Z,1009.95
2024-02-29T03:21:23.913Z,1009.87
2024-02-29T03:22:23.902Z,1009.91
2024-02-29T03:23:23.891Z,1009.87
2024-02-29T03:24:23.883Z,1009.88
2024-02-29T03:25:23.865Z,1009.87
2024-02-29T03:26:23.908Z,1009.86
2024-02-29T03:27:23.846Z,1009.87
2024-02-29T03:28:23.835Z,1009.88
2024-02-29T03:29:23.833Z,1009.83
2024-02-29T03:30:23.818Z,1009.83
2024-02-29T03:31:23.802Z,1009.80
2024-02-29T03:32:23.839Z,1009.81
2024-02-29T03:33:23.779Z,1009.83
2024-02-29T03:34:23.820Z,1009.78
2024-02-29T03:35:23.762Z,1009.80
2024-02-29T03:36:23.752Z,1009.77
2024-02-29T03:37:23.799Z,1009.70
2024-02-29T03:38:23.773Z,1009.69
2024-02-29T03:39:23.717Z,1009.66
2024-02-29T03:40:23.753Z,1009.67
2024-02-29T03:41:23.708Z,1009.65
2024-02-29T03:42:23.687Z,1009.65
2024-02-29T03:43:23.681Z,1009.62
2024-02-29T03:44:23.696Z,1009.57
2024-02-29T03:45:23.654Z,1009.56
2024-02-29T03:46:23.654Z,1009.54
2024-02-29T03:47:23.626Z,1009.49
2024-02-29T03:48:23.624Z,1009.52
2024-02-29T03:49:23.684Z,1009.43
2024-02-29T03:50:23.641Z,1009.47
2024-02-29T03:51:23.598Z,1009.45
2024-02-29T03:52:23.574Z,1009.43
2024-02-29T03:53:23.570Z,1009.42
2024-02-29T03:54:23.559Z,1009.42
2024-02-29T03:55:23.545Z,1009.40
2024-02-29T03:56:23.575Z,1009.37
2024-02-29T03:57:23.549Z,1009.40
2024-02-29T03:58:23.614Z,1009.40
2024-02-29T03:59:23.499Z,1009.36
2024-02-29T04:00:23.495Z,1009.36
2024-02-29T04:01:23.496Z,1009.37
2024-02-29T04:02:23.541Z,1009.40
2024-02-29T04:03:23.468Z,1009.37
2024-02-29T04:04:23.451Z,1009.40
2024-02-29T04:05:23.444Z,1009.40
2024-02-29T04:06:23.421Z,1009.36
2024-02-29T04:07:23.418Z,1009.39
2024-02-29T04:08:23.450Z,1009.32
2024-02-29T04:09:23.395Z,1009.32
2024-02-29T04:10:23.450Z,1009.30
2024-02-29T04:11:23.470Z,1009.35
2024-02-29T04:12:23.362Z,1009.31
2024-02-29T04:13:23.355Z,1009.34
2024-02-29T04:14:23.383Z,1009.31
2024-02-29T04:15:23.328Z,1009.31
2024-02-29T04:16:23.398Z,1009.28
2024-02-29T04:17:23.304Z,1009.27
2024-02-29T04:18:23.295Z,1009.28
2024-02-29T04:19:23.287Z,1009.23
2024-02-29T04:20:23.345Z,1009.22
2024-02-29T04:21:23.260Z,1009.22
2024-02-29T04:22:23.322Z,1009.22
2024-02-29T04:23:23.258Z,1009.20
2024-02-29T04:24:23.233Z,1009.25
2024-02-29T04:25:23.259Z,1009.19
2024-02-29T04:26:23.259Z,1009.17
2024-02-29T04:27:23.218Z,1009.14
2024-02-29T04:28:23.219Z,1009.15
2024-02-29T04:29:23.199Z,1009.16
2024-02-29T04:30:23.163Z,1009.12
2024-02-29T04:31:23.169Z,1009.13
2024-02-29T04:32:23.176Z,1009.07
2024-02-29T04:33:23.210Z,1009.13
2024-02-29T04:34:23.246Z,1009.05
2024-02-29T04:35:23.117Z,1009.06
2024-02-29T04:36:23.106Z,1009.06
2024-02-29T04:37:23.102Z,1009.00
2024-02-29T04:38:23.136Z,1009.01
2024-02-29T04:39:23.070Z,1009.00
2024-02-29T04:40:23.202Z,1008.97
2024-02-29T04:41:23.059Z,1008.99
2024-02-29T04:42:23.035Z,1008.98
2024-02-29T04:43:23.051Z,1008.96
2024-02-29T04:44:23.094Z,1008.95
2024-02-29T04:45:23.010Z,1008.89
2024-02-29T04:46:22.990Z,1008.89
2024-02-29T04:47:22.985Z,1008.87
2024-02-29T04:48:22.989Z,1008.84
2024-02-29T04:49:22.991Z,1008.84
2024-02-29T04:50:23.034Z,1008.88
2024-02-29T04:51:22.944Z,1008.85
2024-02-29T04:52:22.927Z,1008.80
2024-02-29T04:53:22.926Z,1008.79
2024-02-29T04:54:22.910Z,1008.74
2024-02-29T04:55:22.975Z,1008.77
2024-02-29T04:56:22.924Z,1008.76
2024-02-29T04:57:22.902Z,1008.72
2024-02-29T04:58:22.878Z,1008.72
2024-02-29T04:59:22.857Z,1008.73
2024-02-29T05:00:22.837Z,1008.76
2024-02-29T05:01:22.908Z,1008.68
2024-02-29T05:02:22.887Z,1008.72
2024-02-29T05:03:22.814Z,1008.74
2024-02-29T05:04:22.857Z,1008.71
2024-02-29T05:05:22.795Z,1008.76
2024-02-29T05:06:22.781Z,1008.71
2024-02-29T05:07:22.856Z,1008.72
2024-02-29T05:08:22.799Z,1008.76
2024-02-29T05:09:22.749Z,1008.74
2024-02-29T05:10:22.891Z,1008.69
2024-02-29T05:11:22.804Z,1008.64
2024-02-29T05:12:22.784Z,1008.67
2024-02-29T05:13:22.724Z,1008.62
2024-02-29T05:14:22.729Z,1008.65
2024-02-29T05:15:22.821Z,1008.66
2024-02-29T05:16:22.739Z,1008.64
2024-02-29T05:17:22.670Z,1008.66
2024-02-29T05:18:22.662Z,1008.63
2024-02-29T05:19:22.679Z,1008.63
2024-02-29T05:20:22.764Z,1008.63
2024-02-29T05:21:22.638Z,1008.62
2024-02-29T05:22:22.648Z,1008.59
2024-02-29T05:23:22.610Z,1008.56
2024-02-29T05:24:22.588Z,1008.60
2024-02-29T05:25:22.698Z,1008.62
2024-02-29T05:26:22.621Z,1008.62
2024-02-29T05:27:22.553Z,1008.62
2024-02-29T05:28:22.543Z,1008.62
2024-02-29T05:29:22.767Z,1008.58
2024-02-29T05:30:22.534Z,1008.55
2024-02-29T05:31:22.538Z,1008.58
2024-02-29T05:32:22.520Z,1008.56
2024-02-29T05:33:22.571Z,1008.58
2024-02-29T05:34:22.553Z,1008.51
2024-02-29T05:35:22.477Z,1008.52
2024-02-29T05:36:22.459Z,1008.56
2024-02-29T05:37:22.478Z,1008.53
2024-02-29T05:38:22.476Z,1008.49
2024-02-29T05:39:22.450Z,1008.52
2024-02-29T05:40:22.559Z,1008.50
2024-02-29T05:41:22.406Z,1008.51
2024-02-29T05:42:29.008Z,1008.44
2024-02-29T05:43:22.430Z,1008.48
2024-02-29T05:44:22.716Z,1008.46
2024-02-29T05:45:22.386Z,1008.46
2024-02-29T05:46:22.390Z,1008.49
2024-02-29T05:47:22.395Z,1008.50
2024-02-29T05:48:22.363Z,1008.50
2024-02-29T05:49:22.426Z,1008.45
2024-02-29T05:50:22.349Z,1008.47
2024-02-29T05:51:22.319Z,1008.45
2024-02-29T05:52:22.302Z,1008.46
2024-02-29T05:53:22.272Z,1008.44
2024-02-29T05:54:22.349Z,1008.48
2024-02-29T05:55:22.278Z,1008.47
2024-02-29T05:56:22.286Z,1008.42
2024-02-29T05:57:22.239Z,1008.43
2024-02-29T05:58:22.292Z,1008.46
2024-02-29T05:59:22.257Z,1008.43
2024-02-29T06:00:22.242Z,1008.42
2024-02-29T06:01:22.274Z,1008.45
2024-02-29T06:02:22.204Z,1008.49
2024-02-29T06:03:22.173Z,1008.48
2024-02-29T06:04:22.242Z,1008.46
2024-02-29T06:05:22.165Z,1008.41
2024-02-29T06:06:22.157Z,1008.46
2024-02-29T06:07:22.234Z,1008.50
2024-02-29T06:08:22.155Z,1008.54
2024-02-29T06:09:22.122Z,1008.56
2024-02-29T06:10:22.173Z,1008.49
2024-02-29T06:11:22.142Z,1008.51
2024-02-29T06:12:22.089Z,1008.51
2024-02-29T06:13:22.111Z,1008.50
2024-02-29T06:14:22.091Z,1008.44
2024-02-29T06:15:22.039Z,1008.49
2024-02-29T06:16:22.139Z,1008.51
2024-02-29T06:17:22.037Z,1008.48
2024-02-29T06:18:22.053Z,1008.48
2024-02-29T06:19:22.038Z,1008.46
2024-02-29T06:20:22.019Z,1008.43
2024-02-29T06:21:21.976Z,1008.46
2024-02-29T06:22:22.112Z,1008.43
2024-02-29T06:23:21.956Z,1008.39
2024-02-29T06:24:21.952Z,1008.46
2024-02-29T06:25:22.054Z,1008.40
2024-02-29T06:26:21.965Z,1008.41
2024-02-29T06:27:21.921Z,1008.42
2024-02-29T06:28:24.355Z,1008.38
2024-02-29T06:29:21.890Z,1008.43
2024-02-29T06:30:21.876Z,1008.42
2024-02-29T06:31:21.897Z,1008.39
2024-02-29T06:32:21.896Z,1008.39
2024-02-29T06:33:21.843Z,1008.40
2024-02-29T06:34:21.905Z,1008.39
2024-02-29T06:35:21.823Z,1008.37
2024-02-29T06:36:21.818Z,1008.37
2024-02-29T06:37:21.833Z,1008.37
2024-02-29T06:38:21.831Z,1008.41
2024-02-29T06:39:21.778Z,1008.39
2024-02-29T06:40:21.807Z,1008.36
2024-02-29T06:41:21.779Z,1008.38
2024-02-29T06:42:21.750Z,1008.33
2024-02-29T06:43:21.813Z,1008.37
2024-02-29T06:44:21.746Z,1008.33
2024-02-29T06:45:21.719Z,1008.29
2024-02-29T06:46:21.766Z,1008.30
2024-02-29T06:47:21.702Z,1008.26
2024-02-29T06:48:21.689Z,1008.29
2024-02-29T06:49:21.750Z,1008.27
2024-02-29T06:50:21.708Z,1008.17
2024-02-29T06:51:21.660Z,1008.23
2024-02-29T06:52:21.672Z,1008.20
2024-02-29T06:53:21.643Z,1008.18
2024-02-29T06:54:21.621Z,1008.17
2024-02-29T06:55:21.809Z,1008.20
2024-02-29T06:56:21.641Z,1008.19
2024-02-29T06:57:21.597Z,1008.15
2024-02-29T06:58:21.600Z,1008.07
2024-02-29T06:59:21.563Z,1008.09
2024-02-29T07:00:21.578Z,1008.05
2024-02-29T07:01:21.708Z,1008.04
2024-02-29T07:02:21.560Z,1008.04
2024-02-29T07:03:21.511Z,1007.97
2024-02-29T07:04:21.572Z,1007.99
2024-02-29T07:05:21.505Z,1007.99
2024-02-29T07:06:21.498Z,1008.01
2024-02-29T07:07:21.556Z,1007.91
2024-02-29T07:08:21.494Z,1007.93
2024-02-29T07:09:21.457Z,1007.96
2024-02-29T07:10:21.540Z,1007.90
2024-02-29T07:11:21.453Z,1007.93
2024-02-29T07:12:21.440Z,1007.93
2024-02-29T07:13:21.571Z,1007.91
2024-02-29T07:14:21.445Z,1007.93
2024-02-29T07:15:21.391Z,1007.91
2024-02-29T07:16:21.560Z,1007.91
2024-02-29T07:17:21.372Z,1007.92
2024-02-29T07:18:21.358Z,1007.93
2024-02-29T07:19:21.388Z,1007.93
2024-02-29T07:20:21.383Z,1007.85
2024-02-29T07:21:21.321Z,1007.85
2024-02-29T07:22:21.380Z,1007.84
2024-02-29T07:23:21.301Z,1007.83
2024-02-29T07:24:21.294Z,1007.83
2024-02-29T07:25:21.306Z,1007.81
2024-02-29T07:26:21.314Z,1007.80
2024-02-29T07:27:21.260Z,1007.78
2024-02-29T07:28:21.276Z,1007.77
2024-02-29T07:29:21.288Z,1007.79
2024-02-29T07:30:21.222Z,1007.76
2024-02-29T07:31:21.535Z,1007.78
2024-02-29T07:32:21.229Z,1007.76
2024-02-29T07:33:21.196Z,1007.77
2024-02-29T07:34:21.236Z,1007.81
2024-02-29T07:35:21.181Z,1007.74
2024-02-29T07:36:21.169Z,1007.76
2024-02-29T07:37:21.254Z,1007.74
2024-02-29T07:38:21.175Z,1007.73
2024-02-29T07:39:21.129Z,1007.76
2024-02-29T07:40:21.230Z,1007.75
2024-02-29T07:41:21.102Z,1007.76
2024-02-29T07:42:21.092Z,1007.74
2024-02-29T07:43:21.188Z,1007.73
2024-02-29T07:44:21.111Z,1007.74
2024-02-29T07:45:21.518Z,1007.68
2024-02-29T07:46:21.087Z,1007.66
2024-02-29T07:47:21.042Z,1007.72
2024-02-29T07:48:21.028Z,1007.74
2024-02-29T07:49:21.076Z,1007.73
2024-02-29T07:50:21.049Z,1007.75
2024-02-29T07:51:20.994Z,1007.75
2024-02-29T07:52:21.090Z,1007.76
2024-02-29T07:53:20.977Z,1007.70
2024-02-29T07:54:20.976Z,1007.70
2024-02-29T07:55:21.016Z,1007.72
2024-02-29T07:56:20.981Z,1007.75
2024-02-29T07:57:20.943Z,1007.70
2024-02-29T07:58:21.026Z,1007.78
2024-02-29T07:59:20.910Z,1007.75
2024-02-29T08:00:20.932Z,1007.73
2024-02-29T08:01:21.135Z,1007.72
2024-02-29T08:02:23.813Z,1007.69
2024-02-29T08:03:20.867Z,1007.71
2024-02-29T08:04:20.903Z,1007.75
2024-02-29T08:05:20.849Z,1007.71
2024-02-29T08:06:20.838Z,1007.75
2024-02-29T08:07:20.905Z,1007.76
2024-02-29T08:08:20.852Z,1007.77
2024-02-29T08:09:20.800Z,1007.76
2024-02-29T08:10:20.864Z,1007.73
2024-02-29T08:11:20.796Z,1007.69
2024-02-29T08:12:20.854Z,1007.67
2024-02-29T08:13:20.892Z,1007.72
2024-02-29T08:14:21.161Z,1007.76
2024-02-29T08:15:20.769Z,1007.74
2024-02-29T08:16:20.869Z,1007.68
2024-02-29T08:17:20.719Z,1007.69
2024-02-29T08:18:20.707Z,1007.72
2024-02-29T08:19:20.773Z,1007.72
2024-02-29T08:20:20.727Z,1007.74
2024-02-29T08:21:20.691Z,1007.70
2024-02-29T08:22:20.749Z,1007.67
2024-02-29T08:23:20.643Z,1007.64
2024-02-29T08:24:20.639Z,1007.61
2024-02-29T08:25:20.709Z,1007.65
2024-02-29T08:26:20.662Z,1007.59
2024-02-29T08:27:20.605Z,1007.59
2024-02-29T08:28:20.678Z,1007.56
2024-02-29T08:29:20.586Z,1007.56
2024-02-29T08:30:20.572Z,1007.48
2024-02-29T08:31:20.681Z,1007.53
2024-02-29T08:32:20.606Z,1007.49
2024-02-29T08:33:20.614Z,1007.49
2024-02-29T08:34:20.625Z,1007.45
2024-02-29T08:35:20.524Z,1007.48
2024-02-29T08:36:20.522Z,1007.46
2024-02-29T08:37:20.589Z,1007.49
2024-02-29T08:38:20.527Z,1007.40
2024-02-29T08:39:20.469Z,1007.44
2024-02-29T08:40:20.536Z,1007.44
2024-02-29T08:41:20.461Z,1007.44
2024-02-29T08:42:20.449Z,1007.43
2024-02-29T08:43:20.505Z,1007.41
2024-02-29T08:44:20.451Z,1007.41
2024-02-29T08:45:21.956Z,1007.38
2024-02-29T08:46:20.444Z,1007.37
2024-02-29T08:47:20.388Z,1007.36
2024-02-29T08:48:20.394Z,1007.32
2024-02-29T08:49:20.384Z,1007.32
2024-02-29T08:50:20.404Z,1007.37
2024-02-29T08:51:20.349Z,1007.31
2024-02-29T08:52:20.470Z,1007.31
2024-02-29T08:53:20.321Z,1007.31
2024-02-29T08:54:20.314Z,1007.36
2024-02-29T08:55:20.449Z,1007.32
2024-02-29T08:56:20.338Z,1007.32
2024-02-29T08:57:20.301Z,1007.34
2024-02-29T08:58:20.355Z,1007.29
2024-02-29T08:59:20.258Z,1007.26
2024-02-29T09:00:20.267Z,1007.24
2024-02-29T09:01:20.272Z,1007.22
2024-02-29T09:02:20.273Z,1007.21
2024-02-29T09:03:20.227Z,1007.18
2024-02-29T09:04:20.247Z,1007.16
2024-02-29T09:05:20.193Z,1007.17
2024-02-29T09:06:20.191Z,1007.14
2024-02-29T09:07:20.204Z,1007.10
2024-02-29T09:08:22.695Z,1007.14
2024-02-29T09:09:20.159Z,1007.09
2024-02-29T09:10:20.249Z,1007.18
2024-02-29T09:11:20.200Z,1007.17
2024-02-29T09:12:20.237Z,1007.14
2024-02-29T09:13:30.101Z,1007.06
2024-02-29T09:14:20.149Z,1007.06
2024-02-29T09:15:20.113Z,1007.01
2024-02-29T09:16:20.308Z,1007.04
2024-02-29T09:17:20.098Z,1007.06
2024-02-29T09:18:20.108Z,1007.03
2024-02-29T09:19:20.151Z,1006.99
2024-02-29T09:20:20.088Z,1007.08
2024-02-29T09:21:20.030Z,1007.03
2024-02-29T09:22:20.129Z,1006.97
2024-02-29T09:23:20.003Z,1007.01
2024-02-29T09:24:19.997Z,1007.02
2024-02-29T09:25:20.162Z,1006.94
2024-02-29T09:26:20.021Z,1006.89
2024-02-29T09:27:19.967Z,1006.91
2024-02-29T09:28:19.993Z,1006.86
2024-02-29T09:29:20.511Z,1006.88
2024-02-29T09:30:19.932Z,1006.83
2024-02-29T09:31:20.007Z,1006.79
2024-02-29T09:32:19.997Z,1006.86
2024-02-29T09:33:19.927Z,1006.78
2024-02-29T09:34:19.980Z,1006.78
2024-02-29T09:35:19.878Z,1006.84
2024-02-29T09:36:19.872Z,1006.79
2024-02-29T09:37:19.910Z,1006.79
2024-02-29T09:38:19.873Z,1006.76
2024-02-29T09:39:19.825Z,1006.74
2024-02-29T09:40:19.834Z,1006.71
2024-02-29T09:42:19.876Z,1006.71
2024-02-29T09:43:19.832Z,1006.71
2024-02-29T09:44:19.848Z,1006.68
2024-02-29T09:45:20.280Z,1006.74
2024-02-29T09:46:19.773Z,1006.62
2024-02-29T09:47:19.739Z,1006.61
2024-02-29T09:48:19.728Z,1006.63
2024-02-29T09:49:19.767Z,1006.57
2024-02-29T09:50:19.737Z,1006.61
2024-02-29T09:51:19.699Z,1006.55
2024-02-29T09:52:19.835Z,1006.50
2024-02-29T09:53:19.675Z,1006.51
2024-02-29T09:54:19.670Z,1006.49
2024-02-29T09:55:19.738Z,1006.57
2024-02-29T09:56:19.683Z,1006.52
2024-02-29T09:57:19.638Z,1006.51
2024-02-29T09:58:19.629Z,1006.47
2024-02-29T09:59:19.616Z,1006.47
2024-02-29T10:00:19.612Z,1006.45
2024-02-29T10:01:19.736Z,1006.48
2024-02-29T10:02:19.619Z,1006.39
2024-02-29T10:03:19.564Z,1006.39
2024-02-29T10:04:19.604Z,1006.36
2024-02-29T10:05:19.541Z,1006.39
2024-02-29T10:06:19.551Z,1006.36
2024-02-29T10:07:19.551Z,1006.36
2024-02-29T10:08:19.529Z,1006.39
2024-02-29T10:09:19.510Z,1006.34
2024-02-29T10:10:19.572Z,1006.33
2024-02-29T10:11:19.560Z,1006.37
2024-02-29T10:12:19.652Z,1006.32
2024-02-29T10:13:19.493Z,1006.30
2024-02-29T10:14:19.486Z,1006.27
2024-02-29T10:15:19.439Z,1006.26
2024-02-29T10:16:19.500Z,1006.28
2024-02-29T10:17:19.421Z,1006.26
2024-02-29T10:18:19.449Z,1006.29
2024-02-29T10:19:19.428Z,1006.28
2024-02-29T10:20:19.425Z,1006.26
2024-02-29T10:21:19.373Z,1006.34
2024-02-29T10:22:19.399Z,1006.28
2024-02-29T10:23:19.352Z,1006.26
2024-02-29T10:24:19.340Z,1006.22
2024-02-29T10:25:19.388Z,1006.20
2024-02-29T10:26:19.344Z,1006.19
2024-02-29T10:27:19.300Z,1006.19
2024-02-29T10:28:19.335Z,1006.19
2024-02-29T10:29:19.292Z,1006.11
2024-02-29T10:30:19.278Z,1006.13
2024-02-29T10:31:19.341Z,1006.15
2024-02-29T10:32:19.296Z,1006.15
2024-02-29T10:33:19.258Z,1006.08
2024-02-29T10:34:19.276Z,1006.05
2024-02-29T10:35:19.220Z,1006.08
2024-02-29T10:36:19.206Z,1006.05
2024-02-29T10:37:19.245Z,1006.02
2024-02-29T10:38:19.211Z,1005.99
2024-02-29T10:39:19.178Z,1005.96
2024-02-29T10:40:19.212Z,1005.96
2024-02-29T10:41:19.157Z,1005.97
2024-02-29T10:42:19.172Z,1005.99
2024-02-29T10:43:19.163Z,1005.98
2024-02-29T10:44:19.155Z,1005.90
2024-02-29T10:45:19.116Z,1005.94
2024-02-29T10:46:19.130Z,1005.88
2024-02-29T10:47:19.084Z,1005.86
2024-02-29T10:48:19.076Z,1005.88
2024-02-29T10:49:19.138Z,1005.86
2024-02-29T10:50:19.070Z,1005.85
2024-02-29T10:51:19.062Z,1005.84
2024-02-29T10:52:19.073Z,1005.78
2024-02-29T10:53:19.019Z,1005.83
2024-02-29T10:54:19.025Z,1005.78
2024-02-29T10:55:19.113Z,1005.82
2024-02-29T10:56:19.022Z,1005.75
2024-02-29T10:57:18.977Z,1005.78
2024-02-29T10:58:19.110Z,1005.77
2024-02-29T10:59:18.971Z,1005.71
2024-02-29T11:00:18.939Z,1005.72
2024-02-29T11:01:19.033Z,1005.74
2024-02-29T11:02:18.956Z,1005.71
2024-02-29T11:03:18.910Z,1005.69
2024-02-29T11:04:19.029Z,1005.69
2024-02-29T11:05:18.890Z,1005.60
2024-02-29T11:06:18.883Z,1005.67
2024-02-29T11:07:18.987Z,1005.68
2024-02-29T11:08:18.886Z,1005.61
2024-02-29T11:09:18.843Z,1005.58
2024-02-29T11:10:18.941Z,1005.64
2024-02-29T11:11:18.906Z,1005.68
2024-02-29T11:12:18.837Z,1005.64
2024-02-29T11:13:18.873Z,1005.59
2024-02-29T11:14:19.019Z,1005.62
2024-02-29T11:15:18.817Z,1005.53
2024-02-29T11:16:18.845Z,1005.59
2024-02-29T11:17:18.749Z,1005.55
2024-02-29T11:18:18.742Z,1005.49
2024-02-29T11:19:18.779Z,1005.46
2024-02-29T11:20:18.760Z,1005.45
2024-02-29T11:21:18.733Z,1005.42
2024-02-29T11:22:18.782Z,1005.39
2024-02-29T11:23:18.710Z,1005.43
2024-02-29T11:24:18.675Z,1005.40
2024-02-29T11:25:18.762Z,1005.42
2024-02-29T11:26:18.687Z,1005.37
2024-02-29T11:27:18.648Z,1005.36
2024-02-29T11:28:18.808Z,1005.33
2024-02-29T11:29:18.619Z,1005.31
2024-02-29T11:30:18.608Z,1005.27
2024-02-29T11:31:18.911Z,1005.27
2024-02-29T11:32:18.617Z,1005.20
2024-02-29T11:33:18.613Z,1005.21
2024-02-29T11:34:18.670Z,1005.22
2024-02-29T11:35:18.557Z,1005.17
2024-02-29T11:36:18.542Z,1005.12
2024-02-29T11:37:18.560Z,1005.12
2024-02-29T11:38:25.328Z,1005.14
2024-02-29T11:39:18.576Z,1005.08
2024-02-29T11:40:18.607Z,1005.15
2024-02-29T11:41:18.490Z,1005.03
2024-02-29T11:42:18.474Z,1005.09
2024-02-29T11:43:18.540Z,1005.10
2024-02-29T11:44:18.492Z,1005.04
2024-02-29T11:45:18.440Z,1005.03
2024-02-29T11:46:18.493Z,1004.98
2024-02-29T11:47:18.415Z,1005.02
2024-02-29T11:48:18.465Z,1004.92
2024-02-29T11:49:18.462Z,1004.93
2024-02-29T11:50:18.595Z,1004.92
2024-02-29T11:51:18.378Z,1004.90
2024-02-29T11:52:18.433Z,1004.91
2024-02-29T11:53:18.360Z,1004.94
2024-02-29T11:54:18.342Z,1004.80
2024-02-29T11:55:18.371Z,1004.85
2024-02-29T11:56:18.426Z,1004.79
2024-02-29T11:57:18.315Z,1004.77
2024-02-29T11:58:18.421Z,1004.73
2024-02-29T11:59:18.293Z,1004.70
2024-02-29T12:00:18.276Z,1004.72
2024-02-29T12:01:18.336Z,1004.73
2024-02-29T12:02:18.288Z,1004.68
2024-02-29T12:03:18.251Z,1004.68
2024-02-29T12:04:18.308Z,1004.63
2024-02-29T12:05:19.992Z,1004.68
2024-02-29T12:06:18.252Z,1004.66